Accueil
METAR-TAF:

METAR-TAF

Aéroports :

Mönchengladbach, Allemagne

latitude: 51-13-49N, longitude: 006-30-16E, altitude: 38 m

Observation

Le bulletin a été fait il y a 25 minutes, à 09:50 UTC
Vent 4 kt de direction variable
Température 8°C
Humidité 71%
Pression 1014 hPa
Visibilité 10 km ou plus
Nuages fragmentés à une hauteur de 3000 ft

METAR: EDLN 280950Z VRB04KT 9999 BKN030 08/03 Q1014

Heure: 12:15 (10:15 UTC)

Prévision

Le bulletin a été fait il y a 2 heures et 15 minutes, à 08:00 UTC
Prévision valable du 28 à 09 UTC au 28 à 18 UTC
Vent 6 kt de ouest/sud-ouest
Visibilité 10 km ou plus
Nuages fragmentés à une hauteur de 3000 ft
Evoluant progressivement
du 28 à 15 UTC au 28 à 18 UTC
Vent 5 kt de ouest/nord-ouest

TAF: EDLN 280800Z 2809/2818 24006KT 9999 BKN030 BECMG 2815/2818 30005KT

Observations et prévisions météorologiques de plus de 4000 aéroports (messages METAR et TAF).

Les stations disponibles sont représentées par des disques jaunes et rouges sur la carte.

Passer la souris dessus pour voir le nom de la station.

Cliquer dessus pour voir les observations et prévisions météorologiques.

Pour changer de carte: cliquez sur les boutons verts avec une croix noire pour zoomer, sur le bouton vert avec un tiret pour effectuer un zoom arrière, ou sur les flèches vertes pour les cartes adjacentes.


METAR-TAF: